createdAt,value
2017-04-05T00:00:12.628Z,49.52
2017-04-05T00:02:36.096Z,50.09
2017-04-05T00:04:59.457Z,51.41
2017-04-05T00:07:22.864Z,51.31
2017-04-05T00:09:46.288Z,51.89
2017-04-05T00:12:09.698Z,52.43
2017-04-05T00:14:33.078Z,52.91
2017-04-05T00:16:56.595Z,53.67
2017-04-05T00:19:19.944Z,54.34
2017-04-05T00:21:43.464Z,54.44
2017-04-05T00:24:06.737Z,54.15
2017-04-05T00:26:30.260Z,54.25
2017-04-05T00:28:45.201Z,54.25
2017-04-05T00:31:08.479Z,54.15
2017-04-05T00:33:31.857Z,53.49
2017-04-05T00:35:55.376Z,54.15
2017-04-05T00:38:18.699Z,54.15
2017-04-05T00:40:42.093Z,54.15
2017-04-05T00:44:41.797Z,54.63
2017-04-05T00:47:05.237Z,55.46
2017-04-05T00:49:28.645Z,55.18
2017-04-05T00:51:52.046Z,56.23
2017-04-05T00:54:15.445Z,56.7
2017-04-05T00:56:38.825Z,56.23
2017-04-05T00:59:02.263Z,55.58
2017-04-05T01:01:17.131Z,54.72
2017-04-05T01:03:40.652Z,55.4
2017-04-05T01:06:03.859Z,55.4
2017-04-05T01:08:27.187Z,55.84
2017-04-05T01:10:50.502Z,55.68
2017-04-05T01:13:13.899Z,56.04
2017-04-05T01:15:37.249Z,56.13
2017-04-05T01:18:00.534Z,56.6
2017-04-05T01:20:23.938Z,57.18
2017-04-05T01:22:47.319Z,57.09
2017-04-05T01:25:10.615Z,56.89
2017-04-05T01:27:33.972Z,57.85
2017-04-05T01:29:35.595Z,57.94
2017-04-05T01:31:59.002Z,58.42
2017-04-05T01:34:22.407Z,59.09
2017-04-05T01:36:45.790Z,59.92
2017-04-05T01:39:09.160Z,59.38
2017-04-05T01:41:32.574Z,59.47
2017-04-05T01:43:55.984Z,60.68
2017-04-05T01:46:19.382Z,60.78
2017-04-05T01:48:42.850Z,60.49
2017-04-05T01:50:44.418Z,60.87
2017-04-05T01:52:59.372Z,60.04
2017-04-05T01:55:22.762Z,60.52
2017-04-05T01:57:46.176Z,60.78
2017-04-05T02:00:01.081Z,61.92
2017-04-05T02:02:24.496Z,61.16
2017-04-05T02:04:39.371Z,61.83
2017-04-05T02:07:02.735Z,61.25
2017-04-05T02:09:26.063Z,62.11
2017-04-05T02:11:49.347Z,63.13
2017-04-05T02:14:12.718Z,63.6
2017-04-05T02:16:35.999Z,63.89
2017-04-05T02:18:59.346Z,64.37
2017-04-05T02:21:22.704Z,64.75
2017-04-05T02:23:46.064Z,64.85
2017-04-05T02:26:09.415Z,63.89
2017-04-05T02:28:32.729Z,64.85
2017-04-05T02:30:56.160Z,64.85
2017-04-05T02:33:19.372Z,64.85
2017-04-05T02:35:42.641Z,65.52
2017-04-05T02:38:06.043Z,65.23
2017-04-05T02:40:29.268Z,65.33
2017-04-05T02:42:52.508Z,64.75
2017-04-05T02:45:15.733Z,65.52
2017-04-05T02:47:39.029Z,66.38
2017-04-05T02:50:02.327Z,66.15
2017-04-05T02:52:25.645Z,66.28
2017-04-05T02:54:48.952Z,66.72
2017-04-05T02:57:12.259Z,67.39
2017-04-05T02:59:27.122Z,67.77
2017-04-05T03:01:50.404Z,67.39
2017-04-05T03:04:13.638Z,66.82
2017-04-05T03:06:36.893Z,66.63
2017-04-05T03:09:00.097Z,67.48
2017-04-05T03:11:23.386Z,67.58
2017-04-05T03:13:46.680Z,67.68
2017-04-05T03:16:09.955Z,68.05
2017-04-05T03:18:33.185Z,67.96
2017-04-05T03:20:56.458Z,67.77
2017-04-05T03:23:19.709Z,67.39
2017-04-05T03:25:43.006Z,67.58
2017-04-05T03:28:06.223Z,67
2017-04-05T03:30:29.473Z,66.24
2017-04-05T03:32:52.787Z,66.34
2017-04-05T03:35:15.997Z,66.34
2017-04-05T03:37:39.304Z,67.77
2017-04-05T03:41:38.782Z,67.93
2017-04-05T03:44:02.089Z,68.69
2017-04-05T03:46:03.706Z,69.26
2017-04-05T03:48:27.010Z,68.78
2017-04-05T03:50:50.303Z,68.78
2017-04-05T03:53:13.518Z,68.98
2017-04-05T03:55:36.697Z,67.93
2017-04-05T03:57:59.934Z,67.74
2017-04-05T04:00:23.203Z,68.3
2017-04-05T04:02:46.370Z,69.32
2017-04-05T04:05:09.598Z,68.4
2017-04-05T04:07:32.876Z,67.83
2017-04-05T04:09:56.145Z,67.45
2017-04-05T04:12:19.415Z,67.83
2017-04-05T04:14:21.070Z,68.02
2017-04-05T04:16:44.327Z,68.02
2017-04-05T04:19:07.521Z,67.45
2017-04-05T04:21:30.756Z,67.45
2017-04-05T04:23:53.979Z,67.26
2017-04-05T04:26:17.171Z,67.74
2017-04-05T04:28:40.391Z,68.88
2017-04-05T04:31:03.613Z,69.07
2017-04-05T04:33:18.363Z,70.18
2017-04-05T04:35:41.596Z,70.37
2017-04-05T04:38:04.859Z,70.47
2017-04-05T04:40:28.061Z,70.18
2017-04-05T04:42:51.285Z,70.18
2017-04-05T04:45:14.484Z,70.37
2017-04-05T04:47:37.712Z,69.32
2017-04-05T04:50:00.837Z,69.35
2017-04-05T04:52:24.046Z,69.6
2017-04-05T04:54:47.255Z,69.7
2017-04-05T04:57:10.377Z,69.17
2017-04-05T04:59:33.600Z,68.3
2017-04-05T05:01:56.822Z,68.3
2017-04-05T05:04:20.083Z,67.74
2017-04-05T05:06:43.262Z,68.27
2017-04-05T05:09:06.489Z,68.18
2017-04-05T05:11:30.737Z,67.07
2017-04-05T05:13:53.979Z,67.26
2017-04-05T05:16:17.218Z,66.59
2017-04-05T05:18:40.328Z,66.31
2017-04-05T05:21:03.565Z,65.67
2017-04-05T05:23:26.876Z,63.42
2017-04-05T05:25:50.001Z,58.9
2017-04-05T05:28:13.354Z,54.85
2017-04-05T05:30:36.581Z,52.29
2017-04-05T05:33:00.010Z,49.38
2017-04-05T05:35:23.416Z,48.52
2017-04-05T05:37:25.126Z,44.95
2017-04-05T05:39:20.084Z,41.08
2017-04-05T05:41:35.350Z,38.81
2017-04-05T05:43:58.919Z,36.99
2017-04-05T05:46:22.698Z,34.54
2017-04-05T05:48:46.387Z,32.64
2017-04-05T05:51:01.865Z,30.29
2017-04-05T05:53:25.656Z,27.51
2017-04-05T05:55:49.615Z,25.51
2017-04-05T05:58:13.695Z,24.76
2017-04-05T06:00:37.769Z,22.28
2017-04-05T06:03:01.921Z,21.42
2017-04-05T06:05:26.155Z,20.08
2017-04-05T06:07:50.423Z,19.32
2017-04-05T06:10:06.256Z,20.84
2017-04-05T06:12:30.625Z,19.13
2017-04-05T06:14:55.095Z,18.16
2017-04-05T06:17:19.589Z,17.68
2017-04-05T06:19:44.259Z,16.35
2017-04-05T06:22:08.543Z,15.3
2017-04-05T06:24:33.213Z,13.85
2017-04-05T06:26:57.736Z,12.9
2017-04-05T06:29:22.362Z,10.97
2017-04-05T06:31:38.568Z,13.74
2017-04-05T06:34:03.190Z,12.7
2017-04-05T06:36:27.835Z,12.3
2017-04-05T06:38:43.890Z,12.4
2017-04-05T06:41:00.094Z,16.13
2017-04-05T06:43:24.559Z,20.34
2017-04-05T06:45:49.031Z,23.29
2017-04-05T06:48:13.347Z,23.96
2017-04-05T06:50:37.673Z,27.46
2017-04-05T06:53:01.995Z,26.15
2017-04-05T06:55:26.317Z,19.22
2017-04-05T06:57:50.621Z,14.91
2017-04-05T07:00:14.952Z,11.16
2017-04-05T07:04:15.635Z,7.67
2017-04-05T07:06:40.324Z,7.77
2017-04-05T07:08:56.676Z,6.61
2017-04-05T07:11:21.674Z,5.44
2017-04-05T07:13:46.811Z,5.72
2017-04-05T07:15:57.565Z,5.24
2017-04-05T07:18:08.339Z,3.67
2017-04-05T07:20:19.169Z,3.56
2017-04-05T07:22:21.515Z,3.97
2017-04-05T07:24:47.326Z,3.47
2017-04-05T07:27:13.124Z,2.29
2017-04-05T07:29:39.137Z,2.39
2017-04-05T07:32:05.127Z,0.9
2017-04-05T07:34:31.178Z,1.4
2017-04-05T07:36:57.304Z,1.89
2017-04-05T07:39:23.481Z,1.89
2017-04-05T07:41:49.802Z,3.17
2017-04-05T07:44:16.004Z,3.56
2017-04-05T07:46:42.142Z,2.58
2017-04-05T07:49:08.354Z,5.04
2017-04-05T07:51:34.652Z,8.25
2017-04-05T07:54:00.934Z,9.11
2017-04-05T07:56:27.155Z,9.58
2017-04-05T07:58:29.571Z,11.52
2017-04-05T08:00:55.736Z,10.17
2017-04-05T08:03:21.678Z,11.04
2017-04-05T08:05:47.516Z,14.96
2017-04-05T08:08:13.099Z,14.22
2017-04-05T08:10:38.272Z,13.45
2017-04-05T08:13:03.449Z,12.87
2017-04-05T08:15:28.575Z,13.93
2017-04-05T08:17:53.705Z,15.64
2017-04-05T08:20:04.321Z,19.28
2017-04-05T08:22:29.298Z,16.72
2017-04-05T08:24:54.117Z,16.31
2017-04-05T08:27:18.794Z,17.19
2017-04-05T08:29:43.519Z,15
2017-04-05T08:32:08.264Z,17.66
2017-04-05T08:34:32.928Z,16.61
2017-04-05T08:36:57.679Z,18.04
2017-04-05T08:39:22.324Z,16.99
2017-04-05T08:41:47.064Z,18.24
2017-04-05T08:44:11.690Z,18.04
2017-04-05T08:46:36.198Z,17.55
2017-04-05T08:48:52.380Z,17.66
2017-04-05T08:51:16.954Z,17.86
2017-04-05T08:53:33.142Z,19.56
2017-04-05T08:55:57.790Z,19.38
2017-04-05T08:58:22.271Z,20.81
2017-04-05T09:00:46.774Z,19.94
2017-04-05T09:04:47.634Z,18.82
2017-04-05T09:07:12.195Z,19.48
2017-04-05T09:09:14.093Z,19.58
2017-04-05T09:11:38.645Z,19.38
2017-04-05T09:14:03.179Z,17.66
2017-04-05T09:16:27.699Z,17.56
2017-04-05T09:18:52.213Z,15.56
2017-04-05T09:21:16.802Z,16.61
2017-04-05T09:23:41.400Z,18.32
2017-04-05T09:26:05.901Z,18.22
2017-04-05T09:28:30.423Z,19.75
2017-04-05T09:30:54.949Z,18.41
2017-04-05T09:33:19.468Z,19.28
2017-04-05T09:35:43.972Z,16.71
2017-04-05T09:38:08.519Z,17.18
2017-04-05T09:40:33.000Z,16.24
2017-04-05T09:42:57.526Z,17.47
2017-04-05T09:45:22.025Z,17.47
2017-04-05T09:47:46.523Z,17.08
2017-04-05T09:49:57.077Z,16.99
2017-04-05T09:52:21.640Z,17.18
2017-04-05T09:54:32.181Z,17.57
2017-04-05T09:56:34.254Z,16.51
2017-04-05T09:58:58.824Z,16.9
2017-04-05T10:01:23.371Z,16.12
2017-04-05T10:03:47.863Z,15.94
2017-04-05T10:06:12.451Z,16.88
2017-04-05T10:08:36.986Z,19.27
2017-04-05T10:11:01.543Z,19.85
2017-04-05T10:13:03.470Z,19.47
2017-04-05T10:15:27.959Z,18.51
2017-04-05T10:17:52.435Z,20.21
2017-04-05T10:20:16.927Z,22.7
2017-04-05T10:22:32.883Z,22.88
2017-04-05T10:24:57.271Z,22.13
2017-04-05T10:27:21.620Z,19.94
2017-04-05T10:29:45.969Z,21.07
2017-04-05T10:32:10.348Z,21.73
2017-04-05T10:34:26.299Z,20.69
2017-04-05T10:36:50.722Z,21.84
2017-04-05T10:39:15.082Z,22.89
2017-04-05T10:41:39.475Z,21.66
2017-04-05T10:44:03.865Z,20.79
2017-04-05T10:46:28.255Z,21.36
2017-04-05T10:48:52.603Z,22.11
2017-04-05T10:51:16.921Z,21.64
2017-04-05T10:53:41.258Z,21.62
2017-04-05T10:56:05.585Z,20.86
2017-04-05T10:58:29.886Z,22.67
2017-04-05T11:00:54.184Z,21.71
2017-04-05T11:03:18.459Z,22.29
2017-04-05T11:05:20.386Z,23.05
2017-04-05T11:07:36.236Z,22.58
2017-04-05T11:10:00.494Z,22.49
2017-04-05T11:12:24.708Z,22.49
2017-04-05T11:14:40.615Z,21.98
2017-04-05T11:17:04.647Z,22.94
2017-04-05T11:19:28.836Z,21.69
2017-04-05T11:21:53.019Z,21.59
2017-04-05T11:24:17.396Z,21.41
2017-04-05T11:26:41.509Z,21.53
2017-04-05T11:29:05.865Z,21.42
2017-04-05T11:31:30.012Z,20.86
2017-04-05T11:33:54.198Z,20.65
2017-04-05T11:36:18.368Z,20.84
2017-04-05T11:38:42.522Z,22.38
2017-04-05T11:41:06.721Z,21.62
2017-04-05T11:43:17.155Z,22.38
2017-04-05T11:45:41.329Z,23.72
2017-04-05T11:48:05.469Z,23.52
2017-04-05T11:50:29.741Z,22.47
2017-04-05T11:52:53.989Z,21.99
2017-04-05T11:55:18.057Z,21.52
2017-04-05T11:57:42.238Z,21.13
2017-04-05T12:00:06.494Z,21.04
2017-04-05T12:02:30.642Z,21.41
2017-04-05T12:04:54.841Z,20.76
2017-04-05T12:07:18.974Z,20.37
2017-04-05T12:09:43.227Z,20.86
2017-04-05T12:12:07.463Z,20.66
2017-04-05T12:14:31.603Z,20.08
2017-04-05T12:16:55.787Z,19.02
2017-04-05T12:19:20.030Z,18.44
2017-04-05T12:21:44.207Z,19.21
2017-04-05T12:24:08.409Z,19.7
2017-04-05T12:26:32.771Z,20.84
2017-04-05T12:28:44.104Z,19.1
2017-04-05T12:31:08.551Z,17.47
2017-04-05T12:33:32.735Z,18.33
2017-04-05T12:35:56.858Z,19.58
2017-04-05T12:38:21.108Z,19.87
2017-04-05T12:40:45.191Z,19.88
2017-04-05T12:44:45.535Z,18.54
2017-04-05T12:47:01.329Z,19.3
2017-04-05T12:49:17.097Z,17.85
2017-04-05T12:51:32.866Z,18.22
2017-04-05T12:53:48.621Z,17.66
2017-04-05T12:55:50.523Z,17.57
2017-04-05T12:58:14.773Z,17.96
2017-04-05T13:00:38.992Z,17.97
2017-04-05T13:03:03.209Z,18.05
2017-04-05T13:05:18.945Z,17.28
2017-04-05T13:07:43.110Z,17.66
2017-04-05T13:10:07.372Z,16.51
2017-04-05T13:12:31.509Z,16.05
2017-04-05T13:14:55.699Z,16.24
2017-04-05T13:17:19.938Z,16.52
2017-04-05T13:19:44.161Z,16.72
2017-04-05T13:21:45.587Z,17.19
2017-04-05T13:24:09.892Z,17.96
2017-04-05T13:26:34.183Z,18.43
2017-04-05T13:28:49.982Z,18.34
2017-04-05T13:31:14.200Z,18.73
2017-04-05T13:33:39.112Z,18.34
2017-04-05T13:36:03.326Z,17.59
2017-04-05T13:38:27.549Z,16.72
2017-04-05T13:40:51.796Z,17.02
2017-04-05T13:43:16.065Z,18.05
2017-04-05T13:45:40.266Z,19.2
2017-04-05T13:47:56.086Z,19.02
2017-04-05T13:50:20.353Z,18.73
2017-04-05T13:52:22.359Z,18.84
2017-04-05T13:54:46.624Z,18.85
2017-04-05T13:57:10.860Z,18.16
2017-04-05T13:59:35.097Z,18.07
2017-04-05T14:01:59.414Z,17.49
2017-04-05T14:04:23.547Z,18.06
2017-04-05T14:06:47.766Z,18.84
2017-04-05T14:09:12.058Z,18.17
2017-04-05T14:11:36.132Z,18.17
2017-04-05T14:14:00.452Z,17.86
2017-04-05T14:18:00.825Z,18.07
2017-04-05T14:20:25.996Z,18.73
2017-04-05T14:22:36.527Z,19.21
2017-04-05T14:25:00.783Z,19.31
2017-04-05T14:27:25.014Z,19.68
2017-04-05T14:29:40.768Z,19.68
2017-04-05T14:32:04.976Z,19.7
2017-04-05T14:34:20.696Z,19.76
2017-04-05T14:36:44.885Z,20.15
2017-04-05T14:39:09.063Z,19.29
2017-04-05T14:41:33.236Z,18.9
2017-04-05T14:43:57.336Z,19.75
2017-04-05T14:46:21.541Z,20.14
2017-04-05T14:48:45.647Z,19.56
2017-04-05T14:51:09.732Z,19.86
2017-04-05T14:53:33.884Z,19.38
2017-04-05T14:55:57.875Z,18.62
2017-04-05T14:58:21.904Z,19.38
2017-04-05T15:00:46.682Z,19.95
2017-04-05T15:03:10.115Z,19.86
2017-04-05T15:05:34.141Z,19.85
2017-04-05T15:07:58.117Z,20.04
2017-04-05T15:10:22.095Z,19.57
2017-04-05T15:12:46.218Z,19.86
2017-04-05T15:15:10.380Z,20.04
2017-04-05T15:17:34.416Z,20.14
2017-04-05T15:19:58.497Z,20.25
2017-04-05T15:22:22.556Z,19.86
2017-04-05T15:24:32.410Z,20.14
2017-04-05T15:26:56.499Z,20.53
2017-04-05T15:29:20.511Z,20.04
2017-04-05T15:31:44.636Z,19.75
2017-04-05T15:34:08.623Z,19.28
2017-04-05T15:36:32.762Z,19.57
2017-04-05T15:38:56.732Z,20.63
2017-04-05T15:41:20.669Z,21.97
2017-04-05T15:43:44.700Z,22.63
2017-04-05T15:46:08.767Z,22.15
2017-04-05T15:48:32.819Z,21.86
2017-04-05T15:50:56.822Z,21.67
2017-04-05T15:53:20.766Z,22.05
2017-04-05T15:55:36.348Z,21.67
2017-04-05T15:58:00.240Z,22.33
2017-04-05T16:00:24.221Z,22.05
2017-04-05T16:02:48.192Z,22.73
2017-04-05T16:05:12.312Z,22.15
2017-04-05T16:07:36.262Z,21.58
2017-04-05T16:10:00.661Z,22.05
2017-04-05T16:12:24.612Z,21.38
2017-04-05T16:14:34.472Z,21.48
2017-04-05T16:16:58.494Z,21.67
2017-04-05T16:19:14.004Z,21.96
2017-04-05T16:21:37.997Z,21.56
2017-04-05T16:24:03.005Z,21.66
2017-04-05T16:26:27.004Z,21.48
2017-04-05T16:28:50.882Z,21.48
2017-04-05T16:31:14.817Z,22.52
2017-04-05T16:33:38.731Z,21.66
2017-04-05T16:36:02.720Z,21.08
2017-04-05T16:38:18.230Z,21.27
2017-04-05T16:40:42.143Z,20.97
2017-04-05T16:43:06.008Z,20.79
2017-04-05T16:45:21.460Z,20.68
2017-04-05T16:47:45.356Z,20.68
2017-04-05T16:50:09.269Z,20.6
2017-04-05T16:52:33.239Z,20.98
2017-04-05T16:54:57.106Z,21.55
2017-04-05T16:57:21.074Z,20.88
2017-04-05T16:59:44.978Z,20.11
2017-04-05T17:02:08.863Z,20.88
2017-04-05T17:04:10.663Z,20.68
2017-04-05T17:08:11.098Z,21.44
2017-04-05T17:10:35.098Z,21.36
2017-04-05T17:12:59.033Z,22.31
2017-04-05T17:15:14.520Z,22.49
2017-04-05T17:17:38.399Z,22.78
2017-04-05T17:20:02.258Z,22.69
2017-04-05T17:22:26.200Z,22.88
2017-04-05T17:24:50.000Z,22.39
2017-04-05T17:27:14.899Z,23.54
2017-04-05T17:29:38.764Z,23.36
2017-04-05T17:32:02.635Z,22.69
2017-04-05T17:34:26.496Z,23.65
2017-04-05T17:36:50.359Z,23.55
2017-04-05T17:39:14.294Z,24.6
2017-04-05T17:41:38.148Z,26.89
2017-04-05T17:44:01.996Z,27.73
2017-04-05T17:46:20.762Z,28.7
2017-04-05T17:48:44.665Z,28.79
2017-04-05T17:51:08.490Z,30.04
2017-04-05T17:53:32.283Z,31.27
2017-04-05T17:55:56.080Z,31.93
2017-04-05T17:58:19.820Z,31.46
2017-04-05T18:00:35.145Z,32.41
2017-04-05T18:02:44.948Z,33.08
2017-04-05T18:05:00.291Z,33.47
2017-04-05T18:07:15.616Z,34.5
2017-04-05T18:09:16.897Z,34.59
2017-04-05T18:11:40.632Z,35.75
2017-04-05T18:14:04.351Z,36.71
2017-04-05T18:16:28.049Z,36.8
2017-04-05T18:18:51.681Z,37.74
2017-04-05T18:21:15.398Z,37.84
2017-04-05T18:23:25.181Z,37.76
2017-04-05T18:25:48.887Z,38.51
2017-04-05T18:28:12.515Z,40.21
2017-04-05T18:30:36.199Z,41.91
2017-04-05T18:32:51.398Z,42.01
2017-04-05T18:35:15.035Z,41.91
2017-04-05T18:37:38.673Z,41.94
2017-04-05T18:40:02.267Z,41.65
2017-04-05T18:42:25.936Z,41.74
2017-04-05T18:44:49.565Z,42.11
2017-04-05T18:47:13.204Z,42.4
2017-04-05T18:49:36.801Z,42.2
2017-04-05T18:52:00.447Z,42.2
2017-04-05T18:54:24.008Z,42.47
2017-04-05T18:56:47.669Z,42.85
2017-04-05T18:59:11.265Z,42.11
2017-04-05T19:01:34.824Z,41.89
2017-04-05T19:03:58.336Z,42.27
2017-04-05T19:06:21.935Z,42.27
2017-04-05T19:08:45.531Z,41.8
2017-04-05T19:11:09.115Z,41.89
2017-04-05T19:13:32.705Z,41.99
2017-04-05T19:15:56.317Z,42.08
2017-04-05T19:18:19.845Z,41.8
2017-04-05T19:20:43.495Z,41.8
2017-04-05T19:23:07.181Z,42.18
2017-04-05T19:25:30.840Z,42.18
2017-04-05T19:27:54.368Z,41.8
2017-04-05T19:30:17.945Z,41.99
2017-04-05T19:32:41.551Z,41.89
2017-04-05T19:35:05.110Z,41.61
2017-04-05T19:37:28.692Z,41.41
2017-04-05T19:39:52.271Z,41.8
2017-04-05T19:42:15.847Z,41.8
2017-04-05T19:44:39.424Z,41.61
2017-04-05T19:47:02.992Z,41.89
2017-04-05T19:49:26.623Z,40.86
2017-04-05T19:51:50.253Z,41.13
2017-04-05T19:54:13.780Z,41.32
2017-04-05T19:56:37.334Z,41.41
2017-04-05T19:59:00.924Z,40.77
2017-04-05T20:01:24.579Z,40.86
2017-04-05T20:03:48.180Z,40.86
2017-04-05T20:06:03.375Z,41.22
2017-04-05T20:08:26.966Z,41.61
2017-04-05T20:10:42.126Z,41.13
2017-04-05T20:13:06.148Z,41.24
2017-04-05T20:15:36.397Z,41.15
2017-04-05T20:18:00.043Z,41.7
2017-04-05T20:20:24.403Z,41.63
2017-04-05T20:22:47.190Z,41.72
2017-04-05T20:26:47.324Z,41.15
2017-04-05T20:29:02.606Z,40.95
2017-04-05T20:31:26.277Z,40.77
2017-04-05T20:33:49.839Z,40.95
2017-04-05T20:36:13.403Z,40.67
2017-04-05T20:38:37.006Z,41.05
2017-04-05T20:41:00.661Z,41.51
2017-04-05T20:43:24.285Z,40.95
2017-04-05T20:45:47.794Z,40.86
2017-04-05T20:48:11.489Z,40.67
2017-04-05T20:50:35.025Z,40.95
2017-04-05T20:52:58.619Z,41.8
2017-04-05T20:55:23.105Z,41.34
2017-04-05T20:57:46.771Z,40.94
2017-04-05T21:00:01.934Z,41.89
2017-04-05T21:02:25.518Z,42.08
2017-04-05T21:04:49.078Z,41.51
2017-04-05T21:07:04.261Z,41.7
2017-04-05T21:09:27.820Z,41.41
2017-04-05T21:11:51.382Z,41.15
2017-04-05T21:13:58.149Z,40.94
2017-04-05T21:16:21.736Z,41.13
2017-04-05T21:18:36.927Z,41.22
2017-04-05T21:20:44.291Z,41.05
2017-04-05T21:23:07.210Z,40.77
2017-04-05T21:25:30.843Z,40.67
2017-04-05T21:27:54.401Z,40.58
2017-04-05T21:29:55.623Z,40.29
2017-04-05T21:32:19.328Z,41.13
2017-04-05T21:34:42.901Z,41.32
2017-04-05T21:36:58.112Z,41.89
2017-04-05T21:39:21.761Z,41.41
2017-04-05T21:41:45.305Z,41.8
2017-04-05T21:44:08.773Z,41.41
2017-04-05T21:46:09.992Z,41.13
2017-04-05T21:48:33.609Z,40.84
2017-04-05T21:50:57.727Z,41.03
2017-04-05T21:53:21.347Z,41.22
2017-04-05T21:55:44.918Z,41.41
2017-04-05T21:58:00.071Z,41.32
2017-04-05T22:00:15.250Z,40.84
2017-04-05T22:02:38.836Z,41.03
2017-04-05T22:04:54.001Z,41.11
2017-04-05T22:06:55.802Z,41.13
2017-04-05T22:09:19.418Z,40.94
2017-04-05T22:11:42.995Z,40.94
2017-04-05T22:14:06.565Z,40.65
2017-04-05T22:16:21.733Z,40.65
2017-04-05T22:18:36.941Z,41.2
2017-04-05T22:21:00.488Z,41.68
2017-04-05T22:23:24.046Z,41.39
2017-04-05T22:25:47.615Z,41.2
2017-04-05T22:27:57.329Z,41.39
2017-04-05T22:30:20.944Z,41.87
2017-04-05T22:32:44.503Z,41.68
2017-04-05T22:35:08.127Z,41.68
2017-04-05T22:37:23.206Z,41.39
2017-04-05T22:39:46.728Z,41.3
2017-04-05T22:42:10.201Z,41.78
2017-04-05T22:44:33.874Z,41.95
2017-04-05T22:46:57.321Z,42.33
2017-04-05T22:48:58.983Z,43.09
2017-04-05T22:51:22.538Z,42.33
2017-04-05T22:53:46.009Z,41.95
2017-04-05T22:56:09.594Z,41.87
2017-04-05T22:58:33.047Z,42.07
2017-04-05T23:00:56.627Z,41.87
2017-04-05T23:03:20.077Z,42.61
2017-04-05T23:05:43.659Z,42.52
2017-04-05T23:08:07.225Z,42.81
2017-04-05T23:10:30.796Z,42.43
2017-04-05T23:12:45.855Z,42.33
2017-04-05T23:14:47.134Z,42.16
2017-04-05T23:17:10.697Z,42.81
2017-04-05T23:19:34.169Z,43
2017-04-05T23:21:57.620Z,43.19
2017-04-05T23:24:21.089Z,43.29
2017-04-05T23:26:44.599Z,44.02
2017-04-05T23:29:08.050Z,43.86
2017-04-05T23:31:31.748Z,44.15
2017-04-05T23:33:55.100Z,44.7
2017-04-05T23:36:18.588Z,44.51
2017-04-05T23:38:41.982Z,44.02
2017-04-05T23:41:05.494Z,44.98
2017-04-05T23:43:28.998Z,44.31
2017-04-05T23:45:52.417Z,45.53
2017-04-05T23:48:02.046Z,44.41
2017-04-05T23:50:25.634Z,44.31
2017-04-05T23:52:49.176Z,44.12
2017-04-05T23:55:12.743Z,44.51
2017-04-05T23:57:27.799Z,45.56
2017-04-05T23:59:51.399Z,45.43
